Time;durP1;ratioP1;P1;durP2;ratioP2;P2;SDS_P1;SDS_P2;PMS_P1;PMS_P2;Temp;Humidity;BMP_temperature;BMP_pressure;BME280_temperature;BME280_humidity;BME280_pressure;Samples;Min_cycle;Max_cycle;Signal;HPM_P1;HPM_P2
2021/07/02 00:00:43;;;;;;;13.77;9.77;;;14.00;99.90;;;;;;5016822;28;20117;-79
2021/07/02 00:03:08;;;;;;;18.50;10.57;;;14.00;99.90;;;;;;5013505;28;20120;-78
2021/07/02 00:05:34;;;;;;;20.67;10.85;;;13.90;99.90;;;;;;5021635;28;20045;-78
2021/07/02 00:07:59;;;;;;;19.55;10.50;;;13.80;99.90;;;;;;5011746;28;20034;-78
2021/07/02 00:10:25;;;;;;;18.10;9.82;;;13.80;99.90;;;;;;5027137;28;20033;-78
2021/07/02 00:12:51;;;;;;;17.65;10.90;;;13.70;99.90;;;;;;5019745;28;20028;-78
2021/07/02 00:15:17;;;;;;;16.17;9.63;;;13.70;99.90;;;;;;5019842;28;20032;-78
2021/07/02 00:17:42;;;;;;;31.10;13.55;;;13.70;99.90;;;;;;5009685;28;20026;-79
2021/07/02 00:20:09;;;;;;;21.80;11.55;;;13.70;99.90;;;;;;5028630;28;20488;-78
2021/07/02 00:22:34;;;;;;;15.98;10.13;;;13.70;99.90;;;;;;5018903;28;20128;-78
2021/07/02 00:25:03;;;;;;;19.33;10.40;;;13.70;99.90;;;;;;5021327;28;20121;-78
2021/07/02 00:27:28;;;;;;;16.27;10.10;;;13.60;99.90;;;;;;5027365;28;20021;-78
2021/07/02 00:29:54;;;;;;;23.73;12.38;;;13.60;99.90;;;;;;5011156;28;20545;-78
2021/07/02 00:32:19;;;;;;;21.50;11.35;;;13.60;99.90;;;;;;5027320;28;20029;-78
2021/07/02 00:34:45;;;;;;;16.98;10.43;;;13.60;99.90;;;;;;5009372;28;20080;-78
2021/07/02 00:37:11;;;;;;;23.58;11.77;;;13.60;99.90;;;;;;5024211;28;20029;-78
2021/07/02 00:39:36;;;;;;;26.13;11.73;;;13.60;99.90;;;;;;5017685;28;20025;-78
2021/07/02 00:42:02;;;;;;;25.45;12.10;;;13.70;99.90;;;;;;5019986;28;20091;-78
2021/07/02 00:44:46;;;;;;;23.10;11.02;;;13.70;99.90;;;;;;5010783;28;20057;-78
2021/07/02 00:47:12;;;;;;;;;;;13.70;99.90;;;;;;5017078;28;20041;-78
2021/07/02 00:49:38;;;;;;;24.52;11.07;;;13.80;99.90;;;;;;5026321;28;19905;-79
2021/07/02 00:52:06;;;;;;;22.92;10.00;;;13.80;99.90;;;;;;5018669;28;20087;-78
2021/07/02 00:54:32;;;;;;;32.88;11.43;;;13.70;99.90;;;;;;5020178;28;20045;-78
2021/07/02 00:56:58;;;;;;;24.10;9.95;;;13.70;99.90;;;;;;5013518;28;20103;-78
2021/07/02 00:59:24;;;;;;;23.77;9.52;;;13.70;99.90;;;;;;5026106;28;20057;-78
2021/07/02 01:01:50;;;;;;;25.80;9.73;;;13.60;99.90;;;;;;5019313;28;20520;-78
2021/07/02 01:04:15;;;;;;;21.50;9.48;;;13.50;99.90;;;;;;5022402;28;20060;-78
2021/07/02 01:06:42;;;;;;;22.25;8.85;;;13.50;99.90;;;;;;5014903;28;20026;-78
2021/07/02 01:09:09;;;;;;;24.98;9.15;;;13.50;99.90;;;;;;5008360;28;20491;-78
2021/07/02 01:11:34;;;;;;;17.40;7.88;;;13.40;99.90;;;;;;5027472;28;20482;-78
2021/07/02 01:14:00;;;;;;;13.32;7.38;;;13.40;99.90;;;;;;5016758;28;20025;-78
2021/07/02 01:16:25;;;;;;;20.65;8.68;;;13.30;99.90;;;;;;5020885;28;20504;-78
2021/07/02 01:18:51;;;;;;;20.73;8.07;;;13.30;99.90;;;;;;5014002;28;20037;-78
2021/07/02 01:21:16;;;;;;;25.73;8.45;;;13.30;99.90;;;;;;5017994;28;20042;-78
2021/07/02 01:23:42;;;;;;;27.48;9.50;;;13.30;99.90;;;;;;5018242;28;20044;-78
2021/07/02 01:26:09;;;;;;;29.73;10.35;;;13.30;99.90;;;;;;5018379;28;20490;-78
2021/07/02 01:28:34;;;;;;;14.85;8.20;;;13.30;99.90;;;;;;5012720;28;20049;-78
2021/07/02 01:31:00;;;;;;;18.00;8.70;;;13.20;99.90;;;;;;5026040;28;20025;-79
2021/07/02 01:33:25;;;;;;;26.98;8.90;;;13.20;99.90;;;;;;5010144;28;20044;-78
2021/07/02 01:35:51;;;;;;;12.68;7.07;;;13.10;99.90;;;;;;5007372;28;20037;-79
2021/07/02 01:38:17;;;;;;;14.57;6.78;;;13.10;99.90;;;;;;5017195;28;20029;-79
2021/07/02 01:40:42;;;;;;;22.75;8.57;;;13.10;99.90;;;;;;5009534;28;20113;-78
2021/07/02 01:43:08;;;;;;;19.95;8.23;;;13.00;99.90;;;;;;5009909;28;20037;-79
2021/07/02 01:45:34;;;;;;;19.45;10.43;;;13.00;99.90;;;;;;5026651;28;20520;-79
2021/07/02 01:47:59;;;;;;;30.52;10.30;;;13.00;99.90;;;;;;5007685;28;20032;-79
2021/07/02 01:50:26;;;;;;;27.63;10.43;;;13.10;99.90;;;;;;5017254;28;20112;-79
2021/07/02 01:52:53;;;;;;;23.83;10.30;;;13.00;99.90;;;;;;5009810;28;20022;-79
2021/07/02 01:55:19;;;;;;;23.90;9.77;;;13.00;99.90;;;;;;5018033;28;20030;-79
2021/07/02 01:57:45;;;;;;;21.60;9.30;;;13.10;99.90;;;;;;5017763;28;20030;-79
2021/07/02 02:00:11;;;;;;;16.92;8.80;;;13.10;99.90;;;;;;5024527;28;20715;-79
2021/07/02 02:02:37;;;;;;;21.02;8.88;;;13.10;99.90;;;;;;5018044;28;20410;-79
2021/07/02 02:05:03;;;;;;;23.83;8.80;;;13.00;99.90;;;;;;5027547;28;20034;-79
2021/07/02 02:07:28;;;;;;;19.27;8.32;;;13.00;99.90;;;;;;5027786;28;20026;-79
2021/07/02 02:09:54;;;;;;;18.60;8.95;;;12.90;99.90;;;;;;5011748;28;20033;-79
2021/07/02 02:12:20;;;;;;;21.65;9.13;;;12.80;99.90;;;;;;5012393;28;20032;-79
2021/07/02 02:14:46;;;;;;;19.98;7.60;;;12.90;99.90;;;;;;5027707;28;20471;-79
2021/07/02 02:17:11;;;;;;;26.73;8.68;;;12.80;99.90;;;;;;5027728;28;20030;-79
2021/07/02 02:19:37;;;;;;;19.15;7.75;;;12.70;99.90;;;;;;4999922;28;20034;-79
2021/07/02 02:22:03;;;;;;;15.23;7.18;;;12.80;99.90;;;;;;4992521;28;20043;-79
2021/07/02 02:24:29;;;;;;;17.30;7.20;;;12.70;99.90;;;;;;4992601;28;20036;-79
2021/07/02 02:26:55;;;;;;;24.73;8.13;;;12.70;99.90;;;;;;4992849;28;20054;-79
2021/07/02 02:29:22;;;;;;;21.38;8.38;;;12.70;99.90;;;;;;4999918;28;20454;-79
2021/07/02 02:31:48;;;;;;;18.15;7.57;;;12.60;99.90;;;;;;5027290;28;20032;-79
2021/07/02 02:34:14;;;;;;;17.67;6.55;;;12.60;99.90;;;;;;5012294;28;20029;-79
2021/07/02 02:36:40;;;;;;;18.67;6.65;;;12.60;99.90;;;;;;5012318;28;20390;-79
2021/07/02 02:39:05;;;;;;;17.60;6.43;;;12.50;99.90;;;;;;5026508;28;20038;-79
2021/07/02 02:41:32;;;;;;;15.75;6.30;;;12.50;99.90;;;;;;5011976;28;20033;-79
2021/07/02 02:43:57;;;;;;;15.45;6.90;;;12.50;99.90;;;;;;5012068;28;20451;-79
2021/07/02 02:46:23;;;;;;;16.08;6.75;;;12.50;99.90;;;;;;5012199;28;20101;-79
2021/07/02 02:48:49;;;;;;;14.52;6.53;;;12.40;99.90;;;;;;5012142;28;20022;-79
2021/07/02 02:51:14;;;;;;;13.00;6.78;;;12.50;99.90;;;;;;5008586;28;20025;-79
2021/07/02 02:53:40;;;;;;;25.95;6.57;;;12.40;99.90;;;;;;5011833;28;20029;-79
2021/07/02 02:56:05;;;;;;;14.88;6.10;;;12.30;99.90;;;;;;5012126;28;20029;-79
2021/07/02 02:58:31;;;;;;;16.52;6.65;;;12.20;99.90;;;;;;5012023;28;20025;-79
2021/07/02 03:00:56;;;;;;;21.38;7.25;;;12.20;99.90;;;;;;4999902;28;20058;-79
2021/07/02 03:03:22;;;;;;;15.07;6.60;;;12.20;99.90;;;;;;4992125;28;20068;-79
2021/07/02 03:05:48;;;;;;;13.70;6.20;;;12.20;99.90;;;;;;4996120;28;20416;-79
2021/07/02 03:08:13;;;;;;;19.48;6.25;;;12.20;99.90;;;;;;4996316;28;20072;-79
2021/07/02 03:10:39;;;;;;;12.40;5.90;;;12.20;99.90;;;;;;5001426;28;20507;-79
2021/07/02 03:13:04;;;;;;;13.68;6.80;;;12.10;99.90;;;;;;5014324;28;20437;-80
2021/07/02 03:15:30;;;;;;;31.23;7.70;;;12.10;99.90;;;;;;5015951;28;20394;-80
2021/07/02 03:17:56;;;;;;;12.15;5.28;;;12.00;99.90;;;;;;5015898;28;20065;-80
2021/07/02 03:20:21;;;;;;;23.35;8.13;;;12.00;99.90;;;;;;5014282;28;20406;-80
2021/07/02 03:22:47;;;;;;;20.30;6.80;;;12.20;99.90;;;;;;4995765;28;20034;-80
2021/07/02 03:25:13;;;;;;;23.08;7.85;;;12.30;99.90;;;;;;4996093;28;20042;-79
2021/07/02 03:27:39;;;;;;;18.67;6.70;;;12.30;99.90;;;;;;4996096;28;20033;-81
2021/07/02 03:30:07;;;;;;;18.92;8.43;;;12.40;99.90;;;;;;4996037;28;20072;-80
2021/07/02 03:32:33;;;;;;;18.30;6.57;;;12.40;99.90;;;;;;5011697;28;20502;-80
2021/07/02 03:34:59;;;;;;;15.50;6.95;;;12.40;99.90;;;;;;5011016;28;20030;-80
2021/07/02 03:37:24;;;;;;;18.92;7.25;;;12.40;99.90;;;;;;4995899;28;20022;-80
2021/07/02 03:39:50;;;;;;;13.70;6.60;;;12.40;99.90;;;;;;4995874;28;20034;-80
2021/07/02 03:42:16;;;;;;;18.20;8.20;;;12.40;99.90;;;;;;5006510;28;20030;-81
2021/07/02 03:44:41;;;;;;;23.55;7.80;;;12.40;99.90;;;;;;5030407;28;20073;-80
2021/07/02 03:47:07;;;;;;;18.38;8.30;;;12.40;99.90;;;;;;5030549;28;20546;-82
2021/07/02 03:49:33;;;;;;;29.92;8.98;;;12.40;99.90;;;;;;5015325;28;20093;-82
2021/07/02 03:51:58;;;;;;;17.05;7.75;;;12.40;99.90;;;;;;5008700;28;20105;-81
2021/07/02 03:54:24;;;;;;;15.15;7.45;;;12.40;99.90;;;;;;4994286;28;20061;-81
2021/07/02 03:59:33;;;;;;;20.40;7.05;;;12.50;99.90;;;;;;4995593;28;20110;-81
2021/07/02 04:01:59;;;;;;;14.77;5.53;;;12.50;99.90;;;;;;4998163;28;20037;-81
2021/07/02 04:04:24;;;;;;;12.73;6.13;;;12.50;99.90;;;;;;5014784;28;20055;-81
2021/07/02 04:06:50;;;;;;;15.13;7.40;;;12.60;99.90;;;;;;5015037;28;20030;-80
2021/07/02 04:09:16;;;;;;;10.75;5.45;;;12.70;99.90;;;;;;5014465;28;20041;-81
2021/07/02 04:11:42;;;;;;;9.90;5.72;;;12.80;99.90;;;;;;5029873;28;20022;-80
2021/07/02 04:14:08;;;;;;;6.50;4.75;;;12.80;99.90;;;;;;4996732;28;20031;-81
2021/07/02 04:16:33;;;;;;;9.20;5.72;;;12.90;99.90;;;;;;5010241;28;20121;-80
2021/07/02 04:18:59;;;;;;;11.20;5.05;;;13.00;99.90;;;;;;4995188;28;20376;-81
2021/07/02 04:21:25;;;;;;;11.00;5.13;;;13.00;99.90;;;;;;4994933;28;20037;-80
2021/07/02 04:23:50;;;;;;;9.63;5.70;;;13.10;99.90;;;;;;5007279;28;20065;-80
2021/07/02 04:26:16;;;;;;;10.13;4.90;;;13.10;99.90;;;;;;5006596;28;20061;-80
2021/07/02 04:28:41;;;;;;;12.35;7.50;;;13.10;99.90;;;;;;5010069;28;20068;-80
2021/07/02 04:31:07;;;;;;;13.20;6.82;;;13.30;99.90;;;;;;4994879;28;20019;-80
2021/07/02 04:33:33;;;;;;;17.60;7.78;;;13.40;99.90;;;;;;5001869;28;20029;-80
2021/07/02 04:35:59;;;;;;;28.77;9.98;;;13.60;99.90;;;;;;5014365;28;20026;-81
2021/07/02 04:38:25;;;;;;;27.73;10.40;;;13.80;99.90;;;;;;5029539;28;20030;-81
2021/07/02 04:40:51;;;;;;;31.08;9.52;;;14.10;99.90;;;;;;5013082;28;20564;-81
2021/07/02 04:43:16;;;;;;;29.85;9.10;;;14.20;99.90;;;;;;5012342;28;20038;-81
2021/07/02 04:45:43;;;;;;;34.45;11.75;;;14.30;99.90;;;;;;5014199;28;20033;-81
2021/07/02 04:48:09;;;;;;;38.63;10.65;;;14.50;99.90;;;;;;5013003;28;20053;-81
2021/07/02 04:50:35;;;;;;;58.08;12.57;;;14.60;99.90;;;;;;5014217;28;20030;-81
2021/07/02 04:53:00;;;;;;;52.97;13.73;;;14.70;99.90;;;;;;5013711;28;20451;-81
2021/07/02 04:55:26;;;;;;;40.97;13.07;;;14.80;99.90;;;;;;5012428;28;20053;-81
2021/07/02 04:57:52;;;;;;;30.10;10.57;;;15.00;99.90;;;;;;5029295;28;20069;-81
2021/07/02 05:00:17;;;;;;;56.95;11.82;;;15.00;99.90;;;;;;5012752;28;20120;-81
2021/07/02 05:02:43;;;;;;;39.33;14.10;;;15.10;99.90;;;;;;5013709;28;20026;-80
2021/07/02 05:05:09;;;;;;;50.20;14.30;;;15.10;99.90;;;;;;5018654;28;20613;-80
2021/07/02 05:07:35;;;;;;;46.15;13.63;;;15.30;99.90;;;;;;4993957;28;20152;-81
2021/07/02 05:10:01;;;;;;;37.35;13.40;;;15.40;99.90;;;;;;4994222;28;20046;-80
2021/07/02 05:12:31;;;;;;;40.00;11.50;;;15.40;99.90;;;;;;4992727;28;20029;-80
2021/07/02 05:14:57;;;;;;;40.15;13.43;;;15.50;99.90;;;;;;5010129;28;20034;-80
2021/07/02 05:17:23;;;;;;;42.95;11.93;;;15.60;99.90;;;;;;4993986;28;20027;-80
2021/07/02 05:19:48;;;;;;;31.27;10.85;;;15.70;99.90;;;;;;5013240;28;20026;-81
2021/07/02 05:22:19;;;;;;;49.72;11.50;;;15.80;99.90;;;;;;5013212;28;20064;-80
2021/07/02 05:24:51;;;;;;;38.20;12.50;;;15.90;99.90;;;;;;5010742;28;20076;-81
2021/07/02 05:27:17;;;;;;;36.40;10.00;;;15.90;99.90;;;;;;4993440;28;20097;-80
2021/07/02 05:29:43;;;;;;;43.53;10.63;;;16.10;99.90;;;;;;4997233;28;20114;-79
2021/07/02 05:32:10;;;;;;;48.90;11.00;;;16.20;99.90;;;;;;5010075;28;20437;-80
2021/07/02 05:34:36;;;;;;;50.55;10.45;;;16.30;99.90;;;;;;5013360;28;20050;-80
2021/07/02 05:37:02;;;;;;;40.65;8.60;;;16.50;99.90;;;;;;5028504;28;20048;-80
2021/07/02 05:39:28;;;;;;;46.53;8.38;;;16.60;99.90;;;;;;5025043;28;20026;-82
2021/07/02 05:41:54;;;;;;;37.85;8.07;;;16.90;99.90;;;;;;5012984;28;20092;-80
2021/07/02 05:44:19;;;;;;;35.40;7.80;;;17.00;99.90;;;;;;5012986;28;20057;-81
2021/07/02 05:46:45;;;;;;;23.15;7.03;;;17.10;99.90;;;;;;5013061;28;20034;-82
2021/07/02 05:49:11;;;;;;;21.65;6.90;;;17.30;99.90;;;;;;5025941;28;20025;-80
2021/07/02 05:51:37;;;;;;;22.50;6.88;;;17.40;99.90;;;;;;4993181;28;20110;-80
2021/07/02 05:54:04;;;;;;;33.40;6.40;;;17.50;99.90;;;;;;4993229;28;20109;-81
2021/07/02 05:56:30;;;;;;;23.27;5.75;;;17.60;99.90;;;;;;4993380;28;20030;-80
2021/07/02 05:58:59;;;;;;;27.48;6.15;;;17.70;99.90;;;;;;4993303;28;20023;-80
2021/07/02 06:01:26;;;;;;;30.48;6.00;;;17.90;99.90;;;;;;5007340;28;20026;-80
2021/07/02 06:03:52;;;;;;;22.30;6.70;;;17.90;99.90;;;;;;4999728;28;20026;-79
2021/07/02 06:06:19;;;;;;;22.33;5.20;;;17.90;99.90;;;;;;4991631;28;20390;-80
2021/07/02 06:08:45;;;;;;;27.02;4.82;;;18.10;99.90;;;;;;5007991;28;20030;-80
2021/07/02 06:11:11;;;;;;;19.25;5.20;;;18.20;99.90;;;;;;4992735;28;20033;-79
2021/07/02 06:13:37;;;;;;;18.17;4.63;;;18.30;99.90;;;;;;4993796;28;20483;-80
2021/07/02 06:16:02;;;;;;;31.00;6.40;;;18.40;99.90;;;;;;5007779;28;20031;-79
2021/07/02 06:18:28;;;;;;;17.58;5.55;;;18.40;99.90;;;;;;4992898;28;20050;-79
2021/07/02 06:20:54;;;;;;;21.30;6.18;;;18.40;99.90;;;;;;4992683;28;20442;-79
2021/07/02 06:23:21;;;;;;;21.80;6.25;;;18.50;99.90;;;;;;4993951;28;20061;-80
2021/07/02 06:25:47;;;;;;;18.35;5.65;;;18.50;99.90;;;;;;5012300;28;20116;-79
2021/07/02 06:28:13;;;;;;;11.95;5.15;;;18.40;99.90;;;;;;5021803;28;20030;-79
2021/07/02 06:30:40;;;;;;;17.45;5.80;;;18.70;99.90;;;;;;5005958;28;20017;-79
2021/07/02 06:33:05;;;;;;;16.73;6.00;;;18.80;99.90;;;;;;5011914;28;20390;-80
2021/07/02 06:35:31;;;;;;;24.40;5.90;;;18.80;99.90;;;;;;5008351;28;20086;-79
2021/07/02 06:37:57;;;;;;;18.95;6.00;;;18.80;99.90;;;;;;5000740;28;20022;-77
2021/07/02 06:40:22;;;;;;;22.73;7.45;;;18.70;99.90;;;;;;5011412;28;20029;-78
2021/07/02 06:42:48;;;;;;;16.33;7.25;;;18.60;99.90;;;;;;5011982;28;20025;-78
2021/07/02 06:45:15;;;;;;;19.75;7.07;;;18.60;99.90;;;;;;5010812;28;20030;-78
2021/07/02 06:47:57;;;;;;;21.17;7.10;;;18.70;99.90;;;;;;4992423;28;20057;-78
2021/07/02 06:50:28;;;;;;;15.73;7.75;;;18.80;99.90;;;;;;5010063;28;20084;-79
2021/07/02 06:52:54;;;;;;;17.92;7.68;;;18.90;99.90;;;;;;5011066;28;20438;-80
2021/07/02 06:55:20;;;;;;;17.73;6.32;;;19.20;99.90;;;;;;5027093;28;20482;-79
2021/07/02 06:57:46;;;;;;;15.50;6.47;;;19.40;99.90;;;;;;5005363;28;20032;-79
2021/07/02 07:00:12;;;;;;;18.60;7.72;;;19.40;99.90;;;;;;4992257;28;20034;-79
2021/07/02 07:02:37;;;;;;;17.75;6.43;;;19.60;99.90;;;;;;5019175;28;20025;-78
2021/07/02 07:05:03;;;;;;;18.25;6.78;;;19.40;99.90;;;;;;5011737;28;20029;-78
2021/07/02 07:07:29;;;;;;;16.45;7.53;;;19.40;99.90;;;;;;5011230;28;20093;-79
2021/07/02 07:09:54;;;;;;;20.17;6.90;;;19.30;99.90;;;;;;5010602;28;20029;-78
2021/07/02 07:12:20;;;;;;;16.33;8.00;;;19.40;99.90;;;;;;4993269;28;20034;-79
2021/07/02 07:14:47;;;;;;;22.00;7.53;;;19.40;99.90;;;;;;5007190;28;20034;-78
2021/07/02 07:17:13;;;;;;;19.90;6.53;;;19.60;99.90;;;;;;5002940;28;20037;-78
2021/07/02 07:19:38;;;;;;;21.80;8.77;;;19.60;99.90;;;;;;5003675;28;20402;-78
2021/07/02 07:22:04;;;;;;;31.98;9.35;;;19.50;99.90;;;;;;5001097;28;20113;-79
2021/07/02 07:24:30;;;;;;;18.52;8.65;;;19.40;99.90;;;;;;4995509;28;20038;-79
2021/07/02 07:26:56;;;;;;;21.05;8.30;;;19.20;99.90;;;;;;5011316;28;20022;-78
2021/07/02 07:29:23;;;;;;;23.65;8.18;;;19.20;99.90;;;;;;5007764;28;20030;-79
2021/07/02 07:31:48;;;;;;;17.73;8.80;;;19.30;99.90;;;;;;5006414;28;20084;-78
2021/07/02 07:34:23;;;;;;;19.30;9.02;;;19.40;99.90;;;;;;5032376;28;20022;-78
2021/07/02 07:36:54;;;;;;;15.93;8.75;;;19.30;99.90;;;;;;5008826;28;20022;-77
2021/07/02 07:39:19;;;;;;;26.23;9.38;;;19.40;99.90;;;;;;5006686;28;20371;-77
2021/07/02 07:41:45;;;;;;;20.08;9.00;;;19.60;99.90;;;;;;5013301;28;20093;-78
2021/07/02 07:44:13;;;;;;;18.38;8.55;;;19.60;99.90;;;;;;5008452;28;20390;-77
2021/07/02 07:46:39;;;;;;;21.83;9.35;;;19.90;99.90;;;;;;5016264;28;20024;-77
2021/07/02 07:49:04;;;;;;;22.10;9.25;;;19.70;99.90;;;;;;5008037;28;20038;-79
2021/07/02 07:53:57;;;;;;;26.63;9.68;;;20.00;99.90;;;;;;5020853;28;20105;-78
2021/07/02 07:56:22;;;;;;;18.88;9.00;;;20.10;99.90;;;;;;5023051;28;20290;-78
2021/07/02 07:58:48;;;;;;;14.30;7.82;;;20.00;99.90;;;;;;5027851;28;20021;-77
2021/07/02 08:01:13;;;;;;;17.00;8.75;;;20.00;99.90;;;;;;5026274;28;20025;-77
2021/07/02 08:03:39;;;;;;;20.52;8.00;;;20.00;99.90;;;;;;5028461;28;20108;-77
2021/07/02 08:06:04;;;;;;;19.88;8.43;;;20.00;99.90;;;;;;5019902;28;20037;-77
2021/07/02 08:08:30;;;;;;;17.48;8.25;;;20.30;99.90;;;;;;5006900;28;20505;-78
2021/07/02 08:10:56;;;;;;;18.65;7.60;;;20.50;99.90;;;;;;5014060;28;20022;-78
2021/07/02 08:13:22;;;;;;;24.58;8.68;;;20.70;99.90;;;;;;5021618;28;20032;-77
2021/07/02 08:15:48;;;;;;;22.67;8.27;;;20.80;99.90;;;;;;5028110;28;20033;-77
2021/07/02 08:18:13;;;;;;;24.90;8.57;;;21.10;99.90;;;;;;5019568;28;20060;-78
2021/07/02 08:20:40;;;;;;;19.48;8.52;;;21.10;99.90;;;;;;5016803;28;20037;-78
2021/07/02 08:23:09;;;;;;;20.38;7.82;;;21.10;99.90;;;;;;5011673;28;20053;-77
2021/07/02 08:25:36;;;;;;;18.65;8.55;;;21.20;99.90;;;;;;5027316;28;20442;-77
2021/07/02 08:30:46;;;;;;;18.75;9.05;;;21.20;99.90;;;;;;5014478;28;20037;-77
2021/07/02 08:33:16;;;;;;;13.82;8.38;;;21.10;99.90;;;;;;5019900;28;20038;-77
2021/07/02 08:35:42;;;;;;;22.23;9.45;;;21.00;99.90;;;;;;5012269;28;20056;-77
2021/07/02 08:38:07;;;;;;;26.98;8.13;;;20.90;99.90;;;;;;5011938;28;20586;-77
2021/07/02 08:40:33;;;;;;;24.02;9.60;;;20.60;99.90;;;;;;5009802;28;20486;-77
2021/07/02 08:42:59;;;;;;;12.70;7.07;;;20.60;99.90;;;;;;5019257;28;20056;-78
2021/07/02 08:45:24;;;;;;;26.70;6.90;;;20.60;99.90;;;;;;5015733;28;20547;-77
2021/07/02 08:47:52;;;;;;;14.18;7.22;;;20.60;99.90;;;;;;5020346;28;20035;-76
2021/07/02 08:50:18;;;;;;;16.80;7.70;;;20.90;99.90;;;;;;5026836;28;20053;-77
2021/07/02 08:52:44;;;;;;;23.77;7.38;;;21.30;99.90;;;;;;5020209;28;20061;-78
2021/07/02 08:55:12;;;;;;;22.83;7.80;;;21.50;99.90;;;;;;5018720;28;20104;-78
2021/07/02 08:57:37;;;;;;;17.13;6.90;;;21.70;99.90;;;;;;5022506;28;20038;-77
2021/07/02 09:00:03;;;;;;;18.88;6.75;;;21.80;99.90;;;;;;5011075;28;20121;-77
2021/07/02 09:02:31;;;;;;;9.90;5.85;;;22.00;99.90;;;;;;5016368;28;20056;-77
2021/07/02 09:04:57;;;;;;;11.32;5.78;;;22.00;99.90;;;;;;5008501;28;20034;-77
2021/07/02 09:07:24;;;;;;;15.70;6.47;;;22.00;99.90;;;;;;5023561;28;20041;-77
2021/07/02 09:09:56;;;;;;;13.65;6.43;;;21.80;99.90;;;;;;5026725;28;20479;-77
2021/07/02 09:12:35;;;;;;;20.13;6.17;;;21.90;99.90;;;;;;5018416;28;20018;-78
2021/07/02 09:15:06;;;;;;;18.25;5.70;;;21.80;99.90;;;;;;5008732;28;20512;-78
2021/07/02 09:17:33;;;;;;;14.43;5.00;;;21.50;99.90;;;;;;5017498;28;20038;-78
2021/07/02 09:20:12;;;;;;;17.73;6.05;;;21.50;99.90;;;;;;5018622;28;20043;-78
2021/07/02 09:22:42;;;;;;;10.95;5.28;;;21.40;99.90;;;;;;5009946;28;20048;-77
2021/07/02 09:25:24;;;;;;;17.40;5.53;;;21.20;99.90;;;;;;5018891;28;20113;-77
2021/07/02 09:27:51;;;;;;;17.20;6.88;;;21.10;99.90;;;;;;5016343;28;20021;-78
2021/07/02 09:30:19;;;;;;;11.07;5.60;;;20.90;99.90;;;;;;5018049;28;20386;-78
2021/07/02 09:32:50;;;;;;;12.18;6.30;;;20.70;99.90;;;;;;5023177;28;20021;-78
2021/07/02 09:35:18;;;;;;;18.25;6.47;;;20.60;99.90;;;;;;5016766;28;20028;-78
2021/07/02 09:37:48;;;;;;;11.60;5.47;;;20.70;99.90;;;;;;5011911;28;20034;-79
2021/07/02 09:40:22;;;;;;;17.70;5.20;;;20.90;99.90;;;;;;5016852;28;20076;-78
2021/07/02 09:43:12;;;;;;;18.27;5.88;;;21.20;99.90;;;;;;5008377;28;20030;-78
2021/07/02 09:45:52;;;;;;;13.88;5.22;;;21.60;99.90;;;;;;5035198;28;20033;-79
2021/07/02 09:48:23;;;;;;;15.25;4.85;;;22.10;99.90;;;;;;5011930;28;21771;-79
2021/07/02 09:51:02;;;;;;;14.60;5.50;;;22.60;99.90;;;;;;5027057;28;20686;-79
2021/07/02 09:53:35;;;;;;;14.60;5.70;;;23.20;99.90;;;;;;5019502;28;20138;-78
2021/07/02 09:56:03;;;;;;;10.88;5.35;;;23.50;99.90;;;;;;5013864;28;20057;-79
2021/07/02 09:58:35;;;;;;;16.40;4.93;;;23.80;99.90;;;;;;5006295;28;20041;-78
2021/07/02 10:01:02;;;;;;;24.02;5.47;;;24.00;99.90;;;;;;5022328;28;20028;-78
2021/07/02 10:03:37;;;;;;;13.05;5.07;;;23.80;99.90;;;;;;5023931;28;20021;-79
2021/07/02 10:06:14;;;;;;;9.25;4.78;;;23.10;99.90;;;;;;5020622;28;20033;-79
2021/07/02 10:08:40;;;;;;;9.57;4.50;;;22.70;99.90;;;;;;5023650;28;20375;-79
2021/07/02 10:11:11;;;;;;;11.80;4.97;;;22.40;99.90;;;;;;5021168;28;20034;-78
2021/07/02 10:13:39;;;;;;;18.63;4.72;;;22.10;99.90;;;;;;5007265;28;20451;-78
2021/07/02 10:16:06;;;;;;;14.23;4.68;;;21.60;99.90;;;;;;5016026;28;20440;-78
2021/07/02 10:18:36;;;;;;;15.50;4.82;;;21.30;99.90;;;;;;5009867;28;20026;-79
2021/07/02 10:21:05;;;;;;;13.48;5.18;;;21.20;99.90;;;;;;5024088;28;20026;-79
2021/07/02 10:23:36;;;;;;;9.95;5.47;;;20.90;99.90;;;;;;5016990;28;20568;-78
2021/07/02 10:26:05;;;;;;;13.90;5.15;;;20.70;99.90;;;;;;5019815;28;20030;-78
2021/07/02 10:28:31;;;;;;;15.68;5.85;;;20.60;99.90;;;;;;5016308;28;20531;-79
2021/07/02 10:30:57;;;;;;;11.07;5.57;;;20.40;99.90;;;;;;5026452;28;20096;-78
2021/07/02 10:33:26;;;;;;;11.98;5.75;;;20.50;99.90;;;;;;5010628;28;20112;-78
2021/07/02 10:36:03;;;;;;;9.68;5.88;;;20.40;99.90;;;;;;5016467;28;20061;-77
2021/07/02 10:38:36;;;;;;;18.00;7.15;;;20.50;99.90;;;;;;5012060;28;20546;-79
2021/07/02 10:41:12;;;;;;;9.07;5.68;;;20.70;99.90;;;;;;5009787;28;20500;-78
2021/07/02 10:44:09;;;;;;;11.27;6.55;;;20.70;99.90;;;;;;5029608;28;20064;-78
2021/07/02 10:46:59;;;;;;;16.30;6.65;;;20.80;99.90;;;;;;5031853;28;20440;-78
2021/07/02 10:49:39;;;;;;;12.90;7.38;;;20.90;99.90;;;;;;5019165;28;20033;-77
2021/07/02 10:52:35;;;;;;;15.82;6.63;;;21.00;99.90;;;;;;5011902;28;20078;-76
2021/07/02 10:55:05;;;;;;;10.95;6.93;;;20.90;99.90;;;;;;4989477;28;20542;-77
2021/07/02 10:57:31;;;;;;;12.05;7.38;;;20.80;99.90;;;;;;5027076;28;20034;-77
2021/07/02 10:59:57;;;;;;;11.20;6.63;;;20.90;99.90;;;;;;5013974;28;20046;-80
2021/07/02 11:02:26;;;;;;;11.77;5.78;;;20.90;99.90;;;;;;4992157;28;20026;-78
2021/07/02 11:04:53;;;;;;;11.30;6.07;;;21.20;99.90;;;;;;4991026;28;20022;-78
2021/07/02 11:07:19;;;;;;;13.93;6.60;;;21.80;99.90;;;;;;4992216;28;20057;-79
2021/07/02 11:09:57;;;;;;;14.68;7.07;;;21.90;99.90;;;;;;5008116;28;20058;-78
2021/07/02 11:12:31;;;;;;;10.32;6.43;;;21.80;99.90;;;;;;5007203;28;20022;-78
2021/07/02 11:15:08;;;;;;;18.40;6.75;;;21.60;99.90;;;;;;5007401;28;20048;-77
2021/07/02 11:17:36;;;;;;;12.52;7.05;;;21.50;99.90;;;;;;4992200;28;20031;-78
2021/07/02 11:20:12;;;;;;;18.02;7.22;;;21.80;99.90;;;;;;5015075;28;20026;-77
2021/07/02 11:23:00;;;;;;;21.00;7.20;;;22.30;99.90;;;;;;5026638;28;20384;-78
2021/07/02 11:25:46;;;;;;;21.00;5.75;;;22.70;99.90;;;;;;5012900;28;20030;-78
2021/07/02 11:28:21;;;;;;;12.45;7.18;;;22.80;99.90;;;;;;5030915;28;20022;-79
2021/07/02 11:30:48;;;;;;;14.77;5.88;;;22.90;99.90;;;;;;5028967;28;20506;-78
2021/07/02 11:33:21;;;;;;;8.05;5.35;;;21.90;99.90;;;;;;5030462;28;20064;-77
2021/07/02 11:35:49;;;;;;;;;;;21.50;99.90;;;;;;5016020;28;20029;-78
2021/07/02 11:38:25;;;;;;;11.93;5.20;;;21.10;99.90;;;;;;5015426;28;20420;-78
2021/07/02 11:40:59;;;;;;;8.50;5.93;;;20.70;99.90;;;;;;5012209;28;20034;-77
2021/07/02 11:43:31;;;;;;;11.45;5.45;;;20.40;99.90;;;;;;5015048;28;20120;-77
2021/07/02 11:45:58;;;;;;;15.85;6.13;;;20.60;99.90;;;;;;5030473;28;20018;-77
2021/07/02 11:48:24;;;;;;;13.88;5.32;;;20.90;99.90;;;;;;5030529;28;20022;-77
2021/07/02 11:50:57;;;;;;;18.38;5.10;;;21.60;99.90;;;;;;5025014;28;20030;-77
2021/07/02 11:53:29;;;;;;;15.07;5.70;;;22.50;99.90;;;;;;5010377;28;20109;-78
2021/07/02 11:56:00;;;;;;;16.90;6.63;;;22.20;99.90;;;;;;4995502;28;20031;-78
2021/07/02 11:58:37;;;;;;;18.33;5.68;;;22.20;99.90;;;;;;4995579;28;20022;-78
2021/07/02 12:01:06;;;;;;;12.05;5.38;;;22.30;99.90;;;;;;5014343;28;20044;-78
2021/07/02 12:03:31;;;;;;;10.55;5.22;;;22.80;99.90;;;;;;5014690;28;20057;-78
2021/07/02 12:05:59;;;;;;;9.25;4.55;;;23.60;99.90;;;;;;5014978;28;20487;-78
2021/07/02 12:08:27;;;;;;;8.65;3.97;;;24.20;99.90;;;;;;5029979;28;20064;-78
2021/07/02 12:10:55;;;;;;;9.55;4.13;;;24.60;99.90;;;;;;5014205;28;20022;-78
2021/07/02 12:13:22;;;;;;;8.63;3.53;;;25.00;99.90;;;;;;4994947;28;20026;-78
2021/07/02 12:16:08;;;;;;;11.75;3.30;;;24.80;99.90;;;;;;4995224;28;20032;-77
2021/07/02 12:18:39;;;;;;;8.48;3.80;;;24.70;99.90;;;;;;4995090;28;20113;-79
2021/07/02 12:21:11;;;;;;;10.65;3.45;;;24.70;99.90;;;;;;4993672;28;20041;-79
2021/07/02 12:23:40;;;;;;;8.93;4.05;;;23.90;99.90;;;;;;4995130;28;20026;-78
2021/07/02 12:26:20;;;;;;;12.85;3.60;;;23.80;99.90;;;;;;4995054;28;20065;-77
2021/07/02 12:29:08;;;;;;;8.82;4.00;;;23.50;99.90;;;;;;5010177;28;20398;-77
2021/07/02 12:31:45;;;;;;;5.82;3.42;;;23.30;99.90;;;;;;4994790;28;20620;-78
2021/07/02 12:34:20;;;;;;;10.40;3.63;;;23.00;99.90;;;;;;5014281;28;20053;-78
2021/07/02 12:37:13;;;;;;;4.75;3.05;;;22.80;99.90;;;;;;5013181;28;20101;-78
2021/07/02 12:39:42;;;;;;;10.80;4.32;;;22.60;99.90;;;;;;5014303;28;20547;-78
2021/07/02 12:42:31;;;;;;;20.65;3.72;;;22.40;99.90;;;;;;5028930;28;20394;-76
2021/07/02 12:45:02;;;;;;;25.55;4.32;;;22.50;99.90;;;;;;5014030;28;20030;-77
2021/07/02 12:47:33;;;;;;;7.47;3.40;;;22.40;99.90;;;;;;5014178;28;20054;-77